Silver Lakes, California
Current Conditions -  °F | °C
As of 3:55 PM on Monday 20 Oct 2014 (Local Time) from KVCV Reporting Station
Clear Clear  
Wind Chill: 82°   Ceiling: Unl
Heat Index: 82°   Visibility: 10mi
Dew Point: 34°   Wind: 18mph
Humidity: 17%   Direction: 170°S
Pressure: 29.9"   Gusts: NA
Location:  34.8027°N, 117.361°W
Report Text: KVCV 202255Z AUTO 17016KT 10SM CLR 28/01 A2990 RMK AO2
Loading
Personal Weather Stations






























Interactive Weather Map
Tropical Storm Tracking
New forecast layout! Learn more

10-Day Weather Forecast

Advertisements
Track Severe Weather on mobile